• Join FlightAware (Why Join?)
  • Login
  • US Flag 
10:17AM EDT


 

Airport Tracker/Info


-or-


 

Live Flight TrackerFlight Track Log ✈ FIN666 ✈ 12-Mar-2014 ✈ EKCH / CPH - EFHK / HEL

Flight Track Log - Related Links

Times and Time Zones

All times are in EDT time to prevent confusion due to time zone crossing. See the FIN666 flight status page for this flight to view local times or setup timezone preferences in your user account.

Time Position Orientation Groundspeed Altitude Reporting Facility
EDT Latitude Longitude Course Direction KTS MPH feet Rate Location/Type
08:16AM 55.8966 13.2332 49° Northeast  Level Estimated
08:17AM 55.9658 13.3788 50° Northeast  Level Estimated
08:18AM 56.0349 13.5249 50° Northeast  Level Estimated
08:19AM 56.1056 13.6756 50° Northeast  Level Estimated
08:20AM 56.1762 13.8268 50° Northeast  Level Estimated
08:21AM 56.2466 13.9786 50° Northeast  Level Estimated
08:22AM 56.3169 14.1309 50° Northeast  Level Estimated
08:23AM 56.3869 14.2838 50° Northeast  Level Estimated
08:24AM 56.4567 14.4373 50° Northeast  Level Estimated
08:25AM 56.5264 14.5913 51° Northeast  Level Estimated
08:26AM 56.5959 14.7459 51° Northeast  Level Estimated
08:27AM 56.6651 14.9011 51° Northeast  Level Estimated
08:28AM 56.7342 15.0568 51° Northeast  Level Estimated
08:29AM 56.8031 15.2131 51° Northeast  Level Estimated
08:30AM 56.8718 15.3700 51° Northeast  Level Estimated
08:31AM 56.9403 15.5274 51° Northeast  Level Estimated
08:32AM 57.0085 15.6855 52° Northeast  Level Estimated
08:33AM 57.0766 15.8441 52° Northeast  Level Estimated
08:34AM 57.1445 16.0033 52° Northeast  Level Estimated
08:35AM 57.2122 16.1631 52° Northeast  Level Estimated
08:36AM 57.2797 16.3234 52° Northeast  Level Estimated
08:37AM 57.3470 16.4844 52° Northeast  Level Estimated
08:38AM 57.4140 16.6459 52° Northeast  Level Estimated
08:39AM 57.4809 16.8081 52° Northeast  Level Estimated
08:40AM 57.5458 16.9665 53° Northeast  Level Estimated
08:41AM 57.6105 17.1254 53° Northeast  Level Estimated
08:42AM 57.6749 17.2849 53° Northeast  Level Estimated
08:43AM 57.7392 17.4450 53° Northeast  Level Estimated
08:44AM 57.8033 17.6057 53° Northeast  Level Estimated
08:45AM 57.8672 17.7669 53° Northeast  Level Estimated
08:46AM 57.9308 17.9287 53° Northeast  Level Estimated
08:47AM 57.9943 18.0910 54° Northeast  Level Estimated
08:48AM 58.0576 18.2540 54° Northeast  Level Estimated
08:49AM 58.1206 18.4175 54° Northeast  Level Estimated
08:50AM 58.1834 18.5816 54° Northeast  Level Estimated
08:51AM 58.2461 18.7463 54° Northeast  Level Estimated
08:52AM 58.3085 18.9116 54° Northeast  Level Estimated
08:53AM 58.3707 19.0774 54° Northeast  Level Estimated
08:54AM 58.4327 19.2438 55° Northeast  Level Estimated
08:55AM 58.4944 19.4108 55° Northeast  Level Estimated
08:56AM 58.5560 19.5784 55° Northeast  Level Estimated
08:57AM 58.6173 19.7466 55° Northeast  Level Estimated
08:58AM 58.6784 19.9154 55° Northeast  Level Estimated
08:59AM 58.7393 20.0848 55° Northeast  Level Estimated
09:00AM 58.8000 20.2547 55° Northeast  Level Estimated
09:01AM 58.8604 20.4253 56° Northeast  Level Estimated
09:02AM 58.9206 20.5965 56° Northeast  Level Estimated
09:03AM 58.9806 20.7682 56° Northeast  Level Estimated
09:04AM 59.0404 20.9406 56° Northeast  Level Estimated
09:05AM 59.0999 21.1135 56° Northeast  Level Estimated
09:06AM 59.1592 21.2871 56° Northeast  Level Estimated
09:07AM 59.2183 21.4612 56° Northeast  Level Estimated
09:08AM 59.2779 21.6383 57° Northeast  Level Estimated
09:09AM 59.3373 21.8161 57° Northeast  Level Estimated
09:10AM 59.3964 21.9944 57° Northeast  Level Estimated
09:11AM 59.4553 22.1734 57° Northeast  Level Estimated
09:12AM 59.5140 22.3530 57° Northeast  Level Estimated
09:13AM 59.5724 22.5333 57° Northeast  Level Estimated
09:14AM 59.6306 22.7141 57° Northeast  Level Estimated
09:15AM 59.6885 22.8956 58° Northeast  Level Estimated
09:16AM 59.7461 23.0777 58° Northeast  Level Estimated
09:17AM 59.8035 23.2605 58° Northeast  Level Estimated
09:18AM 59.8607 23.4438 58° Northeast  Level Estimated
09:19AM 59.9176 23.6278 58° Northeast  Level Estimated
09:20AM 59.9742 23.8125 58° Northeast  Level Estimated
09:21AM 60.0306 23.9977 59° Northeast  Level Estimated
09:22AM 60.0867 24.1836 59° Northeast  Level Estimated
09:23AM 60.1426 24.3701 59° Northeast  Level Estimated
09:24AM 60.1982 24.5573 59° Northeast  Level Estimated
09:25AM 60.2535 24.7451 59° Northeast  Level Estimated
09:26AM 60.3086 24.9335 59° Northeast  Level Estimated
09:27AM 60.3172 24.9633 60° Northeast  Level Estimated
09:28AM 60.3172 24.9633 North  Level Estimated
09:29AM 60.3172 24.9633 North  Level Estimated
09:30AM 60.3172 24.9633 North  Level Estimated
09:31AM 60.3172 24.9633 North  Level Estimated
09:32AM 60.3172 24.9633 North  Level Estimated
09:33AM 60.3172 24.9633 North  Level Estimated
09:34AM 60.3172 24.9633 North  Level Estimated
09:35AM 60.3172 24.9633 North  Level Estimated
09:36AM 60.3172 24.9633 North  Level Estimated
09:37AM 60.3172 24.9633 North  Level Estimated
09:38AM 60.3172 24.9633 North  Level Estimated